Time;durP1;ratioP1;P1;durP2;ratioP2;P2;SDS_P1;SDS_P2;PMS_P1;PMS_P2;Temp;Humidity;BMP_temperature;BMP_pressure;BME280_temperature;BME280_humidity;BME280_pressure;Samples;Min_cycle;Max_cycle;Signal;HPM_P1;HPM_P2
2023/04/26 00:01:03;;;;;;;1999.90;999.90;;;11.70;99.90;;;;;;5053395;28;20029;-79
2023/04/26 00:03:29;;;;;;;1999.90;999.90;;;11.80;99.90;;;;;;5052095;28;20021;-73
2023/04/26 00:05:54;;;;;;;1999.90;999.90;;;11.80;99.90;;;;;;5053652;28;20021;-77
2023/04/26 00:08:20;;;;;;;1999.90;999.90;;;11.80;99.90;;;;;;5034979;28;20028;-72
2023/04/26 00:10:45;;;;;;;1999.90;999.90;;;11.90;99.90;;;;;;5052700;28;20032;-72
2023/04/26 00:13:11;;;;;;;1999.90;999.90;;;11.90;99.90;;;;;;5052727;28;20024;-78
2023/04/26 00:15:37;;;;;;;1999.90;999.90;;;11.90;99.90;;;;;;5031777;28;20113;-77
2023/04/26 00:18:03;;;;;;;1999.90;999.90;;;11.90;99.90;;;;;;5015676;28;20022;-77
2023/04/26 00:20:28;;;;;;;1999.90;999.90;;;11.90;99.90;;;;;;5015037;28;20033;-73
2023/04/26 00:23:04;;;;;;;1999.90;999.90;;;12.00;99.90;;;;;;5014766;28;20026;-72
2023/04/26 00:25:30;;;;;;;1999.90;999.90;;;12.10;99.90;;;;;;5033063;28;20026;-72
2023/04/26 00:27:56;;;;;;;1999.90;999.90;;;12.00;99.90;;;;;;5014892;28;20029;-78
2023/04/26 00:30:22;;;;;;;1999.90;999.90;;;12.10;99.90;;;;;;5015264;28;20037;-72
2023/04/26 00:32:48;;;;;;;1999.90;999.90;;;12.10;99.90;;;;;;5015046;28;20033;-78
2023/04/26 00:35:13;;;;;;;1999.90;999.90;;;12.20;99.90;;;;;;5032494;28;20083;-72
2023/04/26 00:37:40;;;;;;;1999.90;999.90;;;12.20;99.90;;;;;;5032773;28;20099;-72
2023/04/26 00:40:06;;;;;;;1999.90;999.90;;;12.20;99.90;;;;;;5032741;28;20029;-72
2023/04/26 00:42:32;;;;;;;1999.90;999.90;;;12.20;99.90;;;;;;5033150;28;20084;-72
2023/04/26 00:44:57;;;;;;;1999.90;999.90;;;12.20;99.90;;;;;;5015150;28;20025;-76
2023/04/26 00:47:29;;;;;;;1999.90;999.90;;;12.20;99.90;;;;;;5019358;28;20021;-73
2023/04/26 00:49:55;;;;;;;1999.90;999.90;;;12.30;99.90;;;;;;5051263;28;20025;-72
2023/04/26 00:52:22;;;;;;;1999.90;999.90;;;12.30;99.90;;;;;;5034530;28;20147;-76
2023/04/26 00:54:48;;;;;;;1999.90;999.90;;;12.30;99.90;;;;;;5038120;28;20052;-72
2023/04/26 00:57:14;;;;;;;1999.90;999.90;;;12.30;99.90;;;;;;5057357;28;20073;-76
2023/04/26 00:59:40;;;;;;;1999.90;999.90;;;12.30;99.90;;;;;;5038238;28;20492;-72
2023/04/26 01:02:06;;;;;;;1999.90;999.90;;;12.40;99.90;;;;;;5056314;28;20048;-72
2023/04/26 01:04:32;;;;;;;1999.90;999.90;;;12.40;99.90;;;;;;5055060;28;20104;-72
2023/04/26 01:07:00;;;;;;;1999.90;999.90;;;12.40;99.90;;;;;;5038751;28;20155;-72
2023/04/26 01:09:28;;;;;;;1999.90;999.90;;;12.40;99.90;;;;;;5038022;28;20036;-77
2023/04/26 01:11:57;;;;;;;1999.90;999.90;;;12.40;99.90;;;;;;5038636;28;20131;-77
2023/04/26 01:14:23;;;;;;;1999.90;999.90;;;12.50;99.90;;;;;;5037917;28;20025;-72
2023/04/26 01:16:49;;;;;;;1999.90;999.90;;;12.50;99.90;;;;;;5038425;28;20468;-72
2023/04/26 01:19:15;;;;;;;1999.90;999.90;;;12.50;99.90;;;;;;5037598;28;20037;-72
2023/04/26 01:21:42;;;;;;;1999.90;999.90;;;12.50;99.90;;;;;;5056378;28;20028;-72
2023/04/26 01:24:11;;;;;;;1999.90;999.90;;;12.50;99.90;;;;;;5055824;28;20032;-77
2023/04/26 01:26:44;;;;;;;1999.90;999.90;;;12.60;99.90;;;;;;5038053;28;20032;-72
2023/04/26 01:29:20;;;;;;;1999.90;999.90;;;12.60;99.90;;;;;;5055980;28;20056;-72
2023/04/26 01:31:47;;;;;;;1999.90;999.90;;;12.60;99.90;;;;;;5055548;28;20033;-77
2023/04/26 01:34:13;;;;;;;1999.90;999.90;;;12.60;99.90;;;;;;5038188;28;20483;-72
2023/04/26 01:36:39;;;;;;;1999.90;999.90;;;12.60;99.90;;;;;;5037888;28;20092;-76
2023/04/26 01:39:06;;;;;;;1999.90;999.90;;;12.70;99.90;;;;;;5037621;28;20029;-71
2023/04/26 01:41:42;;;;;;;1999.90;999.90;;;12.70;99.90;;;;;;5055424;28;20013;-72
2023/04/26 01:44:10;;;;;;;1999.90;999.90;;;12.70;99.90;;;;;;5037546;28;20025;-77
2023/04/26 01:46:35;;;;;;;1999.90;999.90;;;12.70;99.90;;;;;;5037437;28;20070;-72
2023/04/26 01:49:01;;;;;;;1999.90;999.90;;;12.80;99.90;;;;;;5055629;28;20115;-77
2023/04/26 01:51:27;;;;;;;1999.90;999.90;;;12.80;99.90;;;;;;5055137;28;20543;-72
2023/04/26 01:53:52;;;;;;;1999.90;999.90;;;12.70;99.90;;;;;;5055462;28;20036;-72
2023/04/26 01:56:19;;;;;;;1999.90;999.90;;;12.80;99.90;;;;;;5055607;28;20060;-72
2023/04/26 01:58:44;;;;;;;1999.90;999.90;;;12.80;99.90;;;;;;5055344;28;20037;-71
2023/04/26 02:01:10;;;;;;;1999.90;999.90;;;12.80;99.90;;;;;;5054515;28;20504;-71
2023/04/26 02:03:36;;;;;;;1999.90;999.90;;;12.90;99.90;;;;;;5054946;28;20108;-74
2023/04/26 02:06:02;;;;;;;1999.90;999.90;;;12.90;99.90;;;;;;5053484;28;20099;-71
2023/04/26 02:08:28;;;;;;;1999.90;999.90;;;13.00;99.90;;;;;;5055167;28;20033;-72
2023/04/26 02:10:54;;;;;;;1999.90;999.90;;;12.90;99.90;;;;;;5055593;28;20021;-77
2023/04/26 02:13:20;;;;;;;1999.90;999.90;;;12.90;99.90;;;;;;5055231;28;20082;-77
2023/04/26 02:15:46;;;;;;;1999.90;999.90;;;12.90;99.90;;;;;;5033414;28;20091;-72
2023/04/26 02:18:12;;;;;;;1999.90;999.90;;;13.00;99.90;;;;;;5034527;28;20112;-72
2023/04/26 02:20:44;;;;;;;1999.90;999.90;;;13.00;99.90;;;;;;5034995;28;20101;-72
2023/04/26 02:23:11;;;;;;;1999.90;999.90;;;13.00;99.90;;;;;;5035237;28;20036;-77
2023/04/26 02:25:37;;;;;;;1999.90;999.90;;;13.00;99.90;;;;;;5035274;28;20492;-73
2023/04/26 02:28:05;;;;;;;1999.90;999.90;;;13.00;99.90;;;;;;5034751;28;20026;-77
2023/04/26 02:30:31;;;;;;;1999.90;999.90;;;13.10;99.90;;;;;;5033380;28;20069;-72
2023/04/26 02:32:57;;;;;;;1999.90;999.90;;;13.10;99.90;;;;;;5034892;28;20076;-72
2023/04/26 02:35:23;;;;;;;1999.90;999.90;;;13.10;99.90;;;;;;5034693;28;20029;-72
2023/04/26 02:37:51;;;;;;;1999.90;999.90;;;13.10;99.90;;;;;;5035141;28;20021;-72
2023/04/26 02:40:18;;;;;;;1999.90;999.90;;;13.10;99.90;;;;;;5034518;28;20063;-72
2023/04/26 02:42:44;;;;;;;1999.90;999.90;;;13.10;99.90;;;;;;5034561;28;20049;-77
2023/04/26 02:45:10;;;;;;;1999.90;999.90;;;13.10;99.90;;;;;;5046925;28;20182;-71
2023/04/26 02:47:37;;;;;;;1999.90;999.90;;;13.10;99.90;;;;;;5054438;28;20017;-72
2023/04/26 02:50:04;;;;;;;1999.90;999.90;;;13.10;99.90;;;;;;5053848;28;20548;-72
2023/04/26 02:52:29;;;;;;;1999.90;999.90;;;13.20;99.90;;;;;;5053951;28;20041;-77
2023/04/26 02:54:55;;;;;;;1999.90;999.90;;;13.20;99.90;;;;;;5054096;28;20498;-77
2023/04/26 02:57:21;;;;;;;1999.90;999.90;;;13.30;99.90;;;;;;5036464;28;20493;-72
2023/04/26 02:59:46;;;;;;;1999.90;999.90;;;13.20;99.90;;;;;;5054297;28;20017;-72
2023/04/26 03:02:12;;;;;;;1999.90;999.90;;;13.20;99.90;;;;;;5054073;28;20028;-77
2023/04/26 03:04:38;;;;;;;1999.90;999.90;;;13.30;99.90;;;;;;5053829;28;20538;-77
2023/04/26 03:07:04;;;;;;;1999.90;999.90;;;13.30;99.90;;;;;;5053469;28;20372;-72
2023/04/26 03:09:30;;;;;;;1999.90;999.90;;;13.30;99.90;;;;;;5036297;28;20032;-77
2023/04/26 03:11:56;;;;;;;1999.90;999.90;;;13.30;99.90;;;;;;5053841;28;20033;-72
2023/04/26 03:14:21;;;;;;;1999.90;999.90;;;13.30;99.90;;;;;;5035873;28;20423;-72
2023/04/26 03:16:47;;;;;;;1999.90;999.90;;;13.40;99.90;;;;;;5036138;28;20423;-76
2023/04/26 03:19:13;;;;;;;1999.90;999.90;;;13.40;99.90;;;;;;5053783;28;20075;-77
2023/04/26 03:21:39;;;;;;;1999.90;999.90;;;13.50;99.90;;;;;;5053867;28;20071;-76
2023/04/26 03:24:05;;;;;;;1999.90;999.90;;;13.50;99.90;;;;;;5036207;28;20488;-72
2023/04/26 03:26:31;;;;;;;1999.90;999.90;;;13.60;99.90;;;;;;5036306;28;20027;-76
2023/04/26 03:28:57;;;;;;;1999.90;999.90;;;13.60;99.90;;;;;;5036313;28;20116;-76
2023/04/26 03:31:22;;;;;;;1999.90;999.90;;;13.60;99.90;;;;;;5035689;28;20033;-76
2023/04/26 03:33:48;;;;;;;1999.90;999.90;;;13.70;99.90;;;;;;5036045;28;20043;-76
2023/04/26 03:36:14;;;;;;;1999.90;999.90;;;13.80;99.90;;;;;;5035280;28;20400;-72
2023/04/26 03:38:42;;;;;;;1999.90;999.90;;;13.90;99.90;;;;;;5035525;28;20021;-72
2023/04/26 03:41:08;;;;;;;1999.90;999.90;;;14.00;99.90;;;;;;5053474;28;20395;-71
2023/04/26 03:43:34;;;;;;;1999.90;999.90;;;14.00;99.90;;;;;;5035803;28;20020;-77
2023/04/26 03:45:59;;;;;;;1999.90;999.90;;;14.00;99.90;;;;;;5035389;28;20437;-72
2023/04/26 03:48:26;;;;;;;1999.90;999.90;;;14.10;99.90;;;;;;5035354;28;20021;-76
2023/04/26 03:50:52;;;;;;;1999.90;999.90;;;14.10;99.90;;;;;;5028623;28;20041;-72
2023/04/26 03:53:17;;;;;;;1999.90;999.90;;;14.20;99.90;;;;;;5012551;28;20026;-71
2023/04/26 03:55:44;;;;;;;1999.90;999.90;;;14.30;99.90;;;;;;5012329;28;20598;-76
2023/04/26 03:58:09;;;;;;;1999.90;999.90;;;14.40;99.90;;;;;;5013315;28;20053;-76
2023/04/26 04:00:39;;;;;;;1999.90;999.90;;;14.40;99.90;;;;;;5013275;28;20481;-72
2023/04/26 04:03:05;;;;;;;1999.90;999.90;;;14.40;99.90;;;;;;5012380;28;20018;-72
2023/04/26 04:05:31;;;;;;;1999.90;999.90;;;14.50;99.90;;;;;;5012035;28;20037;-75
2023/04/26 04:07:57;;;;;;;1999.90;999.90;;;14.50;99.90;;;;;;5011856;28;20042;-72
2023/04/26 04:10:36;;;;;;;1999.90;999.90;;;14.50;99.90;;;;;;5013157;28;20022;-72
2023/04/26 04:13:02;;;;;;;1999.90;999.90;;;14.50;99.90;;;;;;5012386;28;20057;-76
2023/04/26 04:15:38;;;;;;;1999.90;999.90;;;14.50;99.90;;;;;;5012223;28;20504;-72
2023/04/26 04:18:15;;;;;;;1999.90;999.90;;;14.50;99.90;;;;;;5010835;28;20034;-75
2023/04/26 04:20:41;;;;;;;1999.90;999.90;;;14.50;99.90;;;;;;5011787;28;20021;-75
2023/04/26 04:23:09;;;;;;;1999.90;999.90;;;14.50;99.90;;;;;;5013647;28;20030;-72
2023/04/26 04:25:35;;;;;;;1999.90;999.90;;;14.50;99.90;;;;;;5012051;28;20022;-75
2023/04/26 04:28:28;;;;;;;1999.90;999.90;;;14.50;99.90;;;;;;5013919;28;20037;-72
2023/04/26 04:31:18;;;;;;;1999.90;999.90;;;14.50;99.90;;;;;;5015762;28;20125;-72
2023/04/26 04:34:04;;;;;;;1999.90;999.90;;;14.60;99.90;;;;;;5015695;28;20056;-75
2023/04/26 04:36:42;;;;;;;1999.90;999.90;;;14.50;99.90;;;;;;5015834;28;20030;-75
2023/04/26 04:39:18;;;;;;;1999.90;999.90;;;14.50;99.90;;;;;;5016133;28;20492;-76
2023/04/26 04:41:47;;;;;;;1999.90;999.90;;;14.50;99.90;;;;;;5016040;28;20057;-72
2023/04/26 04:44:16;;;;;;;1999.90;999.90;;;14.50;99.90;;;;;;5015678;28;20018;-72
2023/04/26 04:46:43;;;;;;;1999.90;999.90;;;14.50;99.90;;;;;;5015679;28;20342;-75
2023/04/26 04:49:11;;;;;;;1999.90;999.90;;;14.50;99.90;;;;;;5015473;28;20091;-75
2023/04/26 04:51:57;;;;;;;1999.90;999.90;;;14.50;99.90;;;;;;5039339;28;20494;-75
2023/04/26 04:54:22;;;;;;;1999.90;999.90;;;14.50;99.90;;;;;;5038951;28;20025;-72
2023/04/26 04:56:48;;;;;;;1999.90;999.90;;;14.50;99.90;;;;;;5053861;28;20036;-72
2023/04/26 04:59:14;;;;;;;1999.90;999.90;;;14.50;99.90;;;;;;5038317;28;20056;-75
2023/04/26 05:01:40;;;;;;;1999.90;999.90;;;14.50;99.90;;;;;;5046861;28;20048;-72
2023/04/26 05:04:06;;;;;;;1999.90;999.90;;;14.50;99.90;;;;;;5075040;28;20020;-72
2023/04/26 05:06:32;;;;;;;1999.90;999.90;;;14.50;99.90;;;;;;5057574;28;20021;-75
2023/04/26 05:09:09;;;;;;;1999.90;999.90;;;14.40;99.90;;;;;;5042289;28;20052;-72
2023/04/26 05:11:34;;;;;;;1999.90;999.90;;;14.40;99.90;;;;;;5038060;28;20112;-72
2023/04/26 05:14:03;;;;;;;1999.90;999.90;;;14.40;99.90;;;;;;5056017;28;20108;-72
2023/04/26 05:16:29;;;;;;;1999.90;999.90;;;14.40;99.90;;;;;;5038153;28;20044;-72
2023/04/26 05:18:55;;;;;;;1999.90;999.90;;;14.40;99.90;;;;;;5037909;28;20045;-72
2023/04/26 05:21:21;;;;;;;1999.90;999.90;;;14.40;99.90;;;;;;5060902;28;20077;-72
2023/04/26 05:23:48;;;;;;;1999.90;999.90;;;14.40;99.90;;;;;;5057517;28;20859;-75
2023/04/26 05:26:15;;;;;;;1999.90;999.90;;;14.40;99.90;;;;;;5057739;28;20020;-73
2023/04/26 05:28:41;;;;;;;1999.90;999.90;;;14.40;99.90;;;;;;5057803;28;20032;-72
2023/04/26 05:31:08;;;;;;;1999.90;999.90;;;14.40;99.90;;;;;;5057919;28;20024;-72
2023/04/26 05:33:33;;;;;;;1999.90;999.90;;;14.40;99.90;;;;;;5075590;28;20067;-72
2023/04/26 05:36:00;;;;;;;1999.90;999.90;;;14.40;99.90;;;;;;5057291;28;20056;-72
2023/04/26 05:38:26;;;;;;;1999.90;999.90;;;14.50;99.90;;;;;;5057560;28;20032;-72
2023/04/26 05:40:52;;;;;;;1999.90;999.90;;;14.50;99.90;;;;;;5056484;28;20025;-72
2023/04/26 05:43:18;;;;;;;1999.90;999.90;;;14.50;99.90;;;;;;5057353;28;20119;-76
2023/04/26 05:45:54;;;;;;;1999.90;999.90;;;14.50;99.90;;;;;;5057136;28;20033;-72
2023/04/26 05:48:21;;;;;;;1999.90;999.90;;;14.50;99.90;;;;;;5044553;28;20128;-72
2023/04/26 05:50:47;;;;;;;1999.90;999.90;;;14.50;99.90;;;;;;5037035;28;20053;-72
2023/04/26 05:53:13;;;;;;;1999.90;999.90;;;14.60;99.90;;;;;;5037937;28;20052;-72
2023/04/26 05:55:40;;;;;;;1999.90;999.90;;;14.70;99.90;;;;;;5037655;28;20472;-77
2023/04/26 05:58:06;;;;;;;1999.90;999.90;;;14.60;99.90;;;;;;5036814;28;20029;-76
2023/04/26 06:00:32;;;;;;;1999.90;999.90;;;14.60;99.90;;;;;;5036785;28;20404;-72
2023/04/26 06:03:03;;;;;;;1999.90;999.90;;;14.60;99.90;;;;;;5052573;28;20370;-72
2023/04/26 06:05:30;;;;;;;1999.90;999.90;;;14.60;99.90;;;;;;5039684;28;20029;-76
2023/04/26 06:07:56;;;;;;;1999.90;999.90;;;14.50;99.90;;;;;;5036240;28;20024;-76
2023/04/26 06:10:22;;;;;;;1999.90;999.90;;;14.50;99.90;;;;;;5054144;28;20029;-76
2023/04/26 06:12:58;;;;;;;1999.90;999.90;;;14.40;99.90;;;;;;5033277;28;20066;-72
2023/04/26 06:15:24;;;;;;;1999.90;999.90;;;14.40;99.90;;;;;;5050786;28;20029;-72
2023/04/26 06:17:50;;;;;;;1999.90;999.90;;;14.40;99.90;;;;;;5049525;28;20024;-76
2023/04/26 06:20:15;;;;;;;1999.90;999.90;;;14.30;99.90;;;;;;5036321;28;20100;-76
2023/04/26 06:22:41;;;;;;;1999.90;999.90;;;14.40;99.90;;;;;;5048361;28;20020;-73
2023/04/26 06:25:07;;;;;;;1999.90;999.90;;;14.40;99.90;;;;;;5047800;28;20033;-73
2023/04/26 06:27:33;;;;;;;1999.90;999.90;;;14.50;99.90;;;;;;5052984;28;20059;-72
2023/04/26 06:29:59;;;;;;;1999.90;999.90;;;14.60;99.90;;;;;;5050367;28;20172;-73
2023/04/26 06:32:25;;;;;;;1999.90;999.90;;;14.70;99.90;;;;;;5032907;28;20033;-76
2023/04/26 06:34:50;;;;;;;1999.90;999.90;;;14.70;99.90;;;;;;5057754;28;20077;-72
2023/04/26 06:37:18;;;;;;;1999.90;999.90;;;14.70;99.90;;;;;;5073405;28;20024;-76
2023/04/26 06:39:44;;;;;;;1999.90;999.90;;;14.50;99.90;;;;;;5041058;28;20037;-72
2023/04/26 06:42:10;;;;;;;1999.90;999.90;;;14.40;99.90;;;;;;5043969;28;20032;-72
2023/04/26 06:44:36;;;;;;;1999.90;999.90;;;14.60;99.90;;;;;;5052978;28;20074;-77
2023/04/26 06:47:01;;;;;;;1999.90;999.90;;;14.60;99.90;;;;;;5036647;28;20028;-71
2023/04/26 06:49:27;;;;;;;1999.90;999.90;;;14.80;99.90;;;;;;5033788;28;20031;-77
2023/04/26 06:51:57;;;;;;;1999.90;999.90;;;14.80;99.90;;;;;;5047193;28;21042;-73
2023/04/26 06:54:27;;;;;;;1999.90;999.90;;;14.60;99.90;;;;;;5047678;28;20023;-73
2023/04/26 06:56:53;;;;;;;1999.90;999.90;;;14.50;99.90;;;;;;5058919;28;20085;-77
2023/04/26 06:59:19;;;;;;;1999.90;999.90;;;14.30;99.90;;;;;;5052764;28;20033;-77
2023/04/26 07:01:44;;;;;;;1999.90;999.90;;;14.40;99.90;;;;;;5045994;28;20021;-77
2023/04/26 07:04:10;;;;;;;1999.90;999.90;;;14.60;99.90;;;;;;5051128;28;20549;-73
2023/04/26 07:06:37;;;;;;;1999.90;999.90;;;14.80;99.90;;;;;;5051854;28;20032;-71
2023/04/26 07:09:03;;;;;;;1999.90;999.90;;;14.80;99.90;;;;;;5050936;28;20072;-79
2023/04/26 07:11:29;;;;;;;1999.90;999.90;;;14.70;99.90;;;;;;5049517;28;20154;-78
2023/04/26 07:13:55;;;;;;;1999.90;999.90;;;14.60;99.90;;;;;;5048830;28;20036;-72
2023/04/26 07:16:21;;;;;;;1999.90;999.90;;;14.50;99.90;;;;;;5047880;28;20025;-72
2023/04/26 07:18:47;;;;;;;1999.90;999.90;;;14.70;99.90;;;;;;5045719;28;20080;-72
2023/04/26 07:21:13;;;;;;;1999.90;999.90;;;14.80;99.90;;;;;;5048564;28;20033;-72
2023/04/26 07:23:39;;;;;;;1999.90;999.90;;;15.00;99.90;;;;;;5053939;28;20115;-71
2023/04/26 07:26:05;;;;;;;1999.90;999.90;;;15.10;99.90;;;;;;5049649;28;20507;-72
2023/04/26 07:28:31;;;;;;;1999.90;999.90;;;15.30;99.90;;;;;;5050442;28;20033;-77
2023/04/26 07:30:58;;;;;;;1999.90;999.90;;;15.00;99.90;;;;;;5043515;28;20025;-72
2023/04/26 07:33:24;;;;;;;1999.90;999.90;;;14.80;99.90;;;;;;5050655;28;20514;-72
2023/04/26 07:35:57;;;;;;;1999.90;999.90;;;14.60;99.90;;;;;;5042340;28;20105;-71
2023/04/26 07:38:23;;;;;;;1999.90;999.90;;;14.50;99.90;;;;;;5052989;28;20029;-76
2023/04/26 07:40:49;;;;;;;1999.90;999.90;;;14.60;99.90;;;;;;5039203;28;20024;-75
2023/04/26 07:43:15;;;;;;;1999.90;999.90;;;14.50;99.90;;;;;;5048518;28;20036;-71
2023/04/26 07:45:41;;;;;;;1999.90;999.90;;;14.50;99.90;;;;;;5058836;28;20028;-71
2023/04/26 07:48:07;;;;;;;1999.90;999.90;;;14.50;99.90;;;;;;5049233;28;20044;-76
2023/04/26 07:50:33;;;;;;;1999.90;999.90;;;14.60;99.90;;;;;;5044515;28;20024;-76
2023/04/26 07:52:59;;;;;;;1999.90;999.90;;;14.50;99.90;;;;;;5061386;28;20076;-77
2023/04/26 07:55:25;;;;;;;1999.90;999.90;;;14.40;99.90;;;;;;5044521;28;20071;-76
2023/04/26 07:57:51;;;;;;;1999.90;999.90;;;14.50;99.90;;;;;;5060322;28;20025;-71
2023/04/26 08:00:17;;;;;;;1999.90;999.90;;;14.50;99.90;;;;;;5069783;28;20106;-71
2023/04/26 08:02:45;;;;;;;1999.90;999.90;;;14.60;99.90;;;;;;5056902;28;20021;-77
2023/04/26 08:05:12;;;;;;;1999.90;999.90;;;14.80;99.90;;;;;;5033148;28;20048;-76
2023/04/26 08:07:38;;;;;;;1999.90;999.90;;;14.90;99.90;;;;;;5054460;28;20112;-76
2023/04/26 08:10:04;;;;;;;1999.90;999.90;;;14.90;99.90;;;;;;5048823;28;20087;-72
2023/04/26 08:12:30;;;;;;;1999.90;999.90;;;15.00;99.90;;;;;;5049466;28;20025;-72
2023/04/26 08:14:55;;;;;;;1999.90;999.90;;;15.00;99.90;;;;;;5049810;28;20021;-72
2023/04/26 08:17:21;;;;;;;1999.90;999.90;;;15.00;99.90;;;;;;5048343;28;20031;-72
2023/04/26 08:19:47;;;;;;;1999.90;999.90;;;14.80;99.90;;;;;;5040535;28;20105;-77
2023/04/26 08:22:12;;;;;;;1999.90;999.90;;;14.70;99.90;;;;;;5048086;28;20558;-72
2023/04/26 08:24:38;;;;;;;1999.90;999.90;;;14.80;99.90;;;;;;5064473;28;20083;-71
2023/04/26 08:27:05;;;;;;;1999.90;999.90;;;15.10;99.90;;;;;;5049061;28;20500;-72
2023/04/26 08:29:30;;;;;;;1999.90;999.90;;;15.00;99.90;;;;;;5049917;28;20106;-77
2023/04/26 08:31:56;;;;;;;1999.90;999.90;;;14.80;99.90;;;;;;5052359;28;20041;-71
2023/04/26 08:34:21;;;;;;;1999.90;999.90;;;14.70;99.90;;;;;;5047481;28;20083;-72
2023/04/26 08:36:47;;;;;;;1999.90;999.90;;;14.80;99.90;;;;;;5046093;28;20029;-71
2023/04/26 08:39:13;;;;;;;1999.90;999.90;;;15.10;99.90;;;;;;5040670;28;20483;-72
2023/04/26 08:41:49;;;;;;;1999.90;999.90;;;15.00;99.90;;;;;;5056654;28;20057;-71
2023/04/26 08:44:14;;;;;;;1999.90;999.90;;;14.90;99.90;;;;;;5059901;28;20029;-77
2023/04/26 08:46:45;;;;;;;1999.90;999.90;;;14.90;99.90;;;;;;5050755;28;20020;-71
2023/04/26 08:49:26;;;;;;;1999.90;999.90;;;14.90;99.90;;;;;;5047890;28;20037;-71
2023/04/26 08:51:54;;;;;;;1999.90;999.90;;;14.70;99.90;;;;;;5050230;28;20045;-71
2023/04/26 08:54:20;;;;;;;1999.90;999.90;;;15.00;99.90;;;;;;5060794;28;20033;-72
2023/04/26 08:56:47;;;;;;;1999.90;999.90;;;15.00;99.90;;;;;;5063512;28;20020;-71
2023/04/26 08:59:13;;;;;;;1999.90;999.90;;;15.50;99.90;;;;;;5063321;28;20025;-78
2023/04/26 09:01:40;;;;;;;1999.90;999.90;;;15.30;99.90;;;;;;5049846;28;20033;-71
2023/04/26 09:04:06;;;;;;;1999.90;999.90;;;15.10;99.90;;;;;;5030812;28;20400;-71
2023/04/26 09:06:33;;;;;;;1999.90;999.90;;;14.80;99.90;;;;;;5049056;28;20029;-71
2023/04/26 09:09:03;;;;;;;1999.90;999.90;;;14.60;99.90;;;;;;5049936;28;20466;-78
2023/04/26 09:11:29;;;;;;;1999.90;999.90;;;14.70;99.90;;;;;;5030802;28;20037;-71
2023/04/26 09:13:55;;;;;;;1999.90;999.90;;;15.10;99.90;;;;;;5069808;28;20549;-71
2023/04/26 09:16:35;;;;;;;1999.90;999.90;;;15.10;99.90;;;;;;5051791;28;20090;-72
2023/04/26 09:19:01;;;;;;;1999.90;999.90;;;14.90;99.90;;;;;;5050678;28;20083;-78
2023/04/26 09:21:28;;;;;;;1999.90;999.90;;;15.50;99.90;;;;;;5053600;28;20318;-78
2023/04/26 09:24:03;;;;;;;1999.90;999.90;;;15.50;99.90;;;;;;5053597;28;20516;-77
2023/04/26 09:26:29;;;;;;;1999.90;999.90;;;15.60;99.90;;;;;;5059391;28;20024;-71
2023/04/26 09:29:30;;;;;;;1999.90;999.90;;;16.00;99.90;;;;;;5052420;28;20064;-72
2023/04/26 09:31:57;;;;;;;1999.90;999.90;;;17.30;99.90;;;;;;4983332;28;20497;-79
2023/04/26 09:34:23;;;;;;;1999.90;999.90;;;17.10;99.90;;;;;;4958976;28;20043;-77
2023/04/26 09:36:55;;;;;;;1999.90;999.90;;;17.30;99.90;;;;;;4956034;28;20125;-78
2023/04/26 09:39:36;;;;;;;1999.90;999.90;;;16.60;99.90;;;;;;4976748;28;20417;-79
2023/04/26 09:42:03;;;;;;;1999.90;999.90;;;17.10;99.90;;;;;;4970510;28;20545;-73
2023/04/26 09:44:30;;;;;;;1999.90;999.90;;;16.20;99.90;;;;;;4975744;28;20035;-71
2023/04/26 09:47:03;;;;;;;1999.90;999.90;;;16.10;99.90;;;;;;4983763;28;20117;-79
2023/04/26 09:49:32;;;;;;;1999.90;999.90;;;15.80;99.90;;;;;;4986544;28;20505;-72
2023/04/26 09:52:05;;;;;;;1999.90;999.90;;;15.40;99.90;;;;;;4973631;28;20525;-80
2023/04/26 09:54:36;;;;;;;;;;;15.60;99.90;;;;;;4960364;28;20158;-71
2023/04/26 09:57:02;;;;;;;1999.90;999.90;;;15.50;99.90;;;;;;4970352;28;20289;-71
2023/04/26 09:59:56;;;;;;;1999.90;999.90;;;15.40;99.90;;;;;;4963555;28;20403;-79
2023/04/26 10:02:24;;;;;;;1999.90;999.90;;;15.90;99.90;;;;;;4970471;28;20066;-71
2023/04/26 10:04:54;;;;;;;1999.90;999.90;;;16.20;99.90;;;;;;4981107;28;20034;-78
2023/04/26 10:07:21;;;;;;;1999.90;999.90;;;16.00;99.90;;;;;;5011739;28;20413;-71
2023/04/26 10:09:48;;;;;;;1999.90;999.90;;;15.70;99.90;;;;;;5012732;28;20396;-78
2023/04/26 10:12:15;;;;;;;1999.90;999.90;;;15.70;99.90;;;;;;5014078;28;20049;-72
2023/04/26 10:14:43;;;;;;;1999.90;999.90;;;16.00;99.90;;;;;;5019102;28;20033;-78
2023/04/26 10:17:10;;;;;;;1999.90;999.90;;;16.40;99.90;;;;;;5014752;28;20026;-71
2023/04/26 10:19:37;;;;;;;1999.90;999.90;;;16.60;99.90;;;;;;5022272;28;20029;-79
2023/04/26 10:22:07;;;;;;;1999.90;999.90;;;16.70;99.90;;;;;;5017753;28;20103;-71
2023/04/26 10:24:34;;;;;;;1999.90;999.90;;;16.50;99.90;;;;;;5016396;28;20030;-78
2023/04/26 10:27:02;;;;;;;1999.90;999.90;;;16.10;99.90;;;;;;5028113;28;20022;-76
2023/04/26 10:29:54;;;;;;;1999.90;999.90;;;16.40;99.90;;;;;;5006872;28;20112;-78
2023/04/26 10:32:20;;;;;;;1999.90;999.90;;;17.10;99.90;;;;;;4996378;28;20049;-70
2023/04/26 10:35:17;;;;;;;1999.90;999.90;;;17.10;99.90;;;;;;5011144;28;20124;-70
2023/04/26 10:38:01;;;;;;;1999.90;999.90;;;17.30;99.90;;;;;;4994604;28;21455;-71
2023/04/26 10:40:29;;;;;;;1999.90;999.90;;;17.20;99.90;;;;;;5004231;28;20032;-77
2023/04/26 10:43:10;;;;;;;1999.90;999.90;;;17.10;99.90;;;;;;5003495;28;20022;-70
2023/04/26 10:45:37;;;;;;;1999.90;999.90;;;17.50;99.90;;;;;;4997163;28;20026;-70
2023/04/26 10:48:18;;;;;;;1999.90;999.90;;;17.00;99.90;;;;;;5008789;28;20439;-70
2023/04/26 10:51:07;;;;;;;1999.90;999.90;;;16.70;99.90;;;;;;5001828;28;20028;-71
2023/04/26 10:53:47;;;;;;;1999.90;999.90;;;16.20;99.90;;;;;;5049612;28;20029;-78
2023/04/26 10:56:24;;;;;;;1999.90;999.90;;;15.80;99.90;;;;;;5040176;28;20052;-78
2023/04/26 10:59:08;;;;;;;1999.90;999.90;;;15.60;99.90;;;;;;5043202;28;20442;-70
2023/04/26 11:01:34;;;;;;;1999.90;999.90;;;15.70;99.90;;;;;;5039941;28;20081;-70
2023/04/26 11:04:00;;;;;;;1999.90;999.90;;;15.70;99.90;;;;;;5033583;28;20037;-76
2023/04/26 11:06:27;;;;;;;1999.90;999.90;;;15.90;99.90;;;;;;5054624;28;20018;-70
2023/04/26 11:08:53;;;;;;;1999.90;999.90;;;16.10;99.90;;;;;;5044687;28;20571;-70
2023/04/26 11:11:25;;;;;;;1999.90;999.90;;;16.00;99.90;;;;;;5047557;28;20029;-70
2023/04/26 11:13:50;;;;;;;1999.90;999.90;;;16.20;99.90;;;;;;5038913;28;21124;-71
2023/04/26 11:16:16;;;;;;;1999.90;999.90;;;16.30;99.90;;;;;;5037737;28;20029;-77
2023/04/26 11:18:43;;;;;;;1999.90;999.90;;;16.20;99.90;;;;;;5028154;28;20040;-71
2023/04/26 11:21:11;;;;;;;1999.90;999.90;;;16.10;99.90;;;;;;5045780;28;20021;-70
2023/04/26 11:23:36;;;;;;;1999.90;999.90;;;16.00;99.90;;;;;;5046522;28;20025;-71
2023/04/26 11:26:04;;;;;;;1999.90;999.90;;;16.00;99.90;;;;;;5047521;28;20021;-70
2023/04/26 11:28:31;;;;;;;1999.90;999.90;;;15.80;99.90;;;;;;5046476;28;20039;-78
2023/04/26 11:30:57;;;;;;;1999.90;999.90;;;15.80;99.90;;;;;;5042524;28;20131;-78
2023/04/26 11:33:23;;;;;;;1999.90;999.90;;;15.50;99.90;;;;;;5047107;28;20130;-70
2023/04/26 11:35:50;;;;;;;1999.90;999.90;;;15.40;99.90;;;;;;5049377;28;20559;-77
2023/04/26 11:38:17;;;;;;;1999.90;999.90;;;15.60;99.90;;;;;;5051620;28;20036;-70
2023/04/26 11:40:44;;;;;;;1999.90;999.90;;;15.90;99.90;;;;;;5048369;28;20087;-71
2023/04/26 11:43:10;;;;;;;1999.90;999.90;;;16.30;99.90;;;;;;5055235;28;20028;-70
2023/04/26 11:45:37;;;;;;;1999.90;999.90;;;16.70;99.90;;;;;;5052579;28;20028;-76
2023/04/26 11:48:06;;;;;;;1999.90;999.90;;;16.90;99.90;;;;;;5045675;28;20377;-71
2023/04/26 11:50:33;;;;;;;1999.90;999.90;;;17.00;99.90;;;;;;5049373;28;20075;-71
2023/04/26 11:53:01;;;;;;;1999.90;999.90;;;17.10;99.90;;;;;;5050248;28;20060;-71
2023/04/26 11:55:32;;;;;;;1999.90;999.90;;;16.50;99.90;;;;;;5050617;28;20468;-70
2023/04/26 11:58:07;;;;;;;1999.90;999.90;;;16.20;99.90;;;;;;5049927;28;20371;-71
2023/04/26 12:00:33;;;;;;;1999.90;999.90;;;15.80;99.90;;;;;;5058419;28;20391;-72
2023/04/26 12:03:10;;;;;;;1999.90;999.90;;;15.80;99.90;;;;;;5052624;28;20051;-71